createdAt,value
2022-08-17T00:02:26.322Z,99609.66
2022-08-17T00:07:31.608Z,99611.59
2022-08-17T00:12:44.323Z,99627.84
2022-08-17T00:17:49.102Z,99622.88
2022-08-17T00:23:04.056Z,99629.53
2022-08-17T00:28:07.117Z,99628.50
2022-08-17T00:33:15.260Z,99628.78
2022-08-17T00:38:21.405Z,99634.72
2022-08-17T00:43:30.734Z,99633.88
2022-08-17T00:48:33.920Z,99633.38
2022-08-17T00:53:42.851Z,99638.91
2022-08-17T00:58:45.945Z,99636.66
2022-08-17T01:03:49.676Z,99639.13
2022-08-17T01:08:57.539Z,99644.41
2022-08-17T01:14:00.726Z,99640.88
2022-08-17T01:19:10.473Z,99642.19
2022-08-17T01:24:14.657Z,99642.31
2022-08-17T01:29:17.718Z,99639.09
2022-08-17T01:34:20.657Z,99635.03
2022-08-17T01:39:27.954Z,99634.00
2022-08-17T01:44:30.872Z,99630.66
2022-08-17T01:49:33.756Z,99633.84
2022-08-17T01:54:40.302Z,99636.72
2022-08-17T01:59:43.140Z,99643.38
2022-08-17T02:04:45.930Z,99638.81
2022-08-17T02:09:52.625Z,99630.06
2022-08-17T02:14:55.626Z,99636.88
2022-08-17T02:19:58.460Z,99621.53
2022-08-17T02:25:03.391Z,99619.84
2022-08-17T02:30:59.700Z,99626.78
2022-08-17T02:35:30.134Z,99614.22
2022-08-17T02:40:36.220Z,99613.16
2022-08-17T02:45:39.607Z,99604.00
2022-08-17T02:50:42.408Z,99605.53
2022-08-17T02:55:46.518Z,99604.56
2022-08-17T03:00:49.603Z,99605.53
2022-08-17T03:05:53.110Z,99606.25
2022-08-17T03:10:57.361Z,99603.69
2022-08-17T03:16:00.232Z,99605.88
2022-08-17T03:21:04.352Z,99611.13
2022-08-17T03:26:15.299Z,99604.84
2022-08-17T03:31:18.589Z,99612.94
2022-08-17T03:36:21.345Z,99605.75
2022-08-17T03:41:25.497Z,99606.41
2022-08-17T03:46:45.646Z,99613.16
2022-08-17T03:52:05.833Z,99611.28
2022-08-17T03:57:12.368Z,99610.78
2022-08-17T04:02:20.030Z,99609.44
2022-08-17T04:07:26.338Z,99613.41
2022-08-17T04:12:43.132Z,99607.00
2022-08-17T04:17:46.180Z,99610.91
2022-08-17T04:23:00.249Z,99612.78
2022-08-17T04:28:15.583Z,99636.75
2022-08-17T04:33:21.584Z,99626.63
2022-08-17T04:38:26.565Z,99639.88
2022-08-17T04:43:32.419Z,99639.75
2022-08-17T04:48:37.822Z,99640.91
2022-08-17T04:53:41.345Z,99648.16
2022-08-17T04:58:46.795Z,99656.97
2022-08-17T05:03:49.622Z,99655.84
2022-08-17T05:08:52.563Z,99664.38
2022-08-17T05:13:58.249Z,99660.25
2022-08-17T05:19:02.511Z,99660.13
2022-08-17T05:24:07.150Z,99668.22
2022-08-17T05:29:35.583Z,99674.84
2022-08-17T05:34:39.267Z,99676.97
2022-08-17T05:39:42.057Z,99680.09
2022-08-17T05:44:46.214Z,99686.91
2022-08-17T05:49:49.330Z,99679.66
2022-08-17T05:55:05.980Z,99680.66
2022-08-17T06:00:20.224Z,99683.22
2022-08-17T06:05:38.328Z,99684.63
2022-08-17T06:10:48.567Z,99686.88
2022-08-17T06:16:02.986Z,99687.56
2022-08-17T06:21:12.121Z,99684.88
2022-08-17T06:26:20.262Z,99696.88
2022-08-17T06:31:29.297Z,99697.53
2022-08-17T06:36:48.135Z,99691.59
2022-08-17T06:42:05.671Z,99703.13
2022-08-17T06:47:13.600Z,99699.00
2022-08-17T06:52:46.799Z,99703.13
2022-08-17T06:57:51.048Z,99708.97
2022-08-17T07:02:59.857Z,99716.81
2022-08-17T07:08:09.251Z,99714.13
2022-08-17T07:13:29.549Z,99706.00
2022-08-17T07:18:34.531Z,99712.56
2022-08-17T07:23:52.897Z,99707.25
2022-08-17T07:28:57.195Z,99697.56
2022-08-17T07:34:05.846Z,99698.69
2022-08-17T07:39:09.951Z,99701.66
2022-08-17T07:44:14.761Z,99698.34
2022-08-17T07:49:23.009Z,99704.03
2022-08-17T07:54:30.733Z,99699.88
2022-08-17T07:59:35.831Z,99691.22
2022-08-17T08:04:59.867Z,99694.31
2022-08-17T08:10:10.930Z,99696.44
2022-08-17T08:15:19.012Z,99690.41
2022-08-17T08:20:51.166Z,99699.94
2022-08-17T08:26:06.229Z,99693.22
2022-08-17T08:31:25.202Z,99695.50
2022-08-17T08:37:14.314Z,99706.75
2022-08-17T08:42:14.015Z,99710.00
2022-08-17T08:47:41.588Z,99700.56
2022-08-17T08:53:14.991Z,99703.97
2022-08-17T08:58:30.636Z,99711.66
2022-08-17T09:04:24.074Z,99707.91
2022-08-17T09:09:43.553Z,99704.22
2022-08-17T09:14:56.390Z,99698.19
2022-08-17T09:20:02.360Z,99695.31
2022-08-17T09:25:11.840Z,99702.00
2022-08-17T09:30:15.032Z,99690.16
2022-08-17T09:35:22.719Z,99695.13
2022-08-17T09:40:32.783Z,99700.28
2022-08-17T09:45:43.626Z,99694.97
2022-08-17T09:51:03.288Z,99701.81
2022-08-17T09:56:23.928Z,99693.38
2022-08-17T10:01:36.228Z,99678.63
2022-08-17T10:06:59.483Z,99682.88
2022-08-17T10:12:20.447Z,99669.19
2022-08-17T10:17:31.463Z,99668.41
2022-08-17T10:23:00.274Z,99662.28
2022-08-17T10:28:11.728Z,99661.25
2022-08-17T10:33:27.867Z,99651.09
2022-08-17T10:38:42.254Z,99655.50
2022-08-17T10:44:37.346Z,99651.94
2022-08-17T10:49:30.460Z,99658.16
2022-08-17T10:54:40.301Z,99635.41
2022-08-17T10:59:52.895Z,99635.09
2022-08-17T11:05:29.882Z,99633.94
2022-08-17T11:10:52.222Z,99636.19
2022-08-17T11:16:10.387Z,99644.16
2022-08-17T11:21:42.260Z,99638.13
2022-08-17T11:27:00.513Z,99632.53
2022-08-17T11:32:13.262Z,99638.63
2022-08-17T11:37:33.181Z,99631.22
2022-08-17T11:42:52.624Z,99624.47
2022-08-17T11:48:28.695Z,99625.84
2022-08-17T11:54:31.106Z,99617.22
2022-08-17T12:00:10.103Z,99616.03
2022-08-17T12:05:32.761Z,99597.56
2022-08-17T12:10:40.813Z,99590.09
2022-08-17T12:15:51.309Z,99602.66
2022-08-17T12:21:13.323Z,99599.09
2022-08-17T12:26:20.026Z,99600.13
2022-08-17T12:31:32.479Z,99597.41
2022-08-17T12:36:36.881Z,99597.72
2022-08-17T12:41:43.436Z,99595.16
2022-08-17T12:46:50.494Z,99606.19
2022-08-17T12:52:04.171Z,99620.63
2022-08-17T12:57:13.423Z,99614.69
2022-08-17T13:02:41.382Z,99614.88
2022-08-17T13:07:46.787Z,99600.13
2022-08-17T13:12:51.326Z,99599.25
2022-08-17T13:18:07.431Z,99593.53
2022-08-17T13:23:21.688Z,99596.91
2022-08-17T13:28:33.606Z,99595.59
2022-08-17T13:33:44.849Z,99573.00
2022-08-17T13:38:51.111Z,99577.06
2022-08-17T13:43:53.919Z,99568.94
2022-08-17T13:49:02.765Z,99563.84
2022-08-17T13:54:20.534Z,99560.13
2022-08-17T13:59:53.106Z,99566.44
2022-08-17T14:04:55.313Z,99561.69
2022-08-17T14:10:02.994Z,99559.81
2022-08-17T14:15:07.180Z,99569.84
2022-08-17T14:20:12.817Z,99562.34
2022-08-17T14:25:20.816Z,99573.09
2022-08-17T14:30:25.723Z,99574.63
2022-08-17T14:35:30.629Z,99567.31
2022-08-17T14:40:35.902Z,99569.72
2022-08-17T14:45:38.853Z,99563.75
2022-08-17T14:50:44.067Z,99554.09
2022-08-17T14:55:51.266Z,99552.63
2022-08-17T15:00:54.006Z,99550.63
2022-08-17T15:05:56.809Z,99547.56
2022-08-17T15:11:02.357Z,99545.03
2022-08-17T15:16:05.384Z,99543.69
2022-08-17T15:21:10.001Z,99536.75
2022-08-17T15:26:14.243Z,99533.00
2022-08-17T15:31:18.146Z,99531.47
2022-08-17T15:36:20.999Z,99517.88
2022-08-17T15:41:25.141Z,99518.63
2022-08-17T15:46:28.051Z,99514.00
2022-08-17T15:51:32.890Z,99516.06
2022-08-17T15:56:36.997Z,99513.50
2022-08-17T16:03:01.618Z,99520.78
2022-08-17T16:07:02.522Z,99511.78
2022-08-17T16:12:16.201Z,99517.56
2022-08-17T16:17:38.523Z,99514.16
2022-08-17T16:22:43.861Z,99502.25
2022-08-17T16:27:53.394Z,99496.44
2022-08-17T16:32:58.197Z,99502.91
2022-08-17T16:38:01.030Z,99502.38
2022-08-17T16:43:12.026Z,99500.34
2022-08-17T16:48:15.591Z,99494.03
2022-08-17T16:53:20.146Z,99494.03
2022-08-17T16:58:24.305Z,99493.19
2022-08-17T17:03:29.207Z,99490.66
2022-08-17T17:08:38.307Z,99494.72
2022-08-17T17:13:54.658Z,99514.97
2022-08-17T17:19:09.017Z,99500.00
2022-08-17T17:24:16.678Z,99504.94
2022-08-17T17:29:47.794Z,99510.38
2022-08-17T17:34:56.004Z,99510.00
2022-08-17T17:40:02.953Z,99503.88
2022-08-17T17:45:10.727Z,99508.31
2022-08-17T17:50:14.214Z,99508.63
2022-08-17T17:55:30.697Z,99506.94
2022-08-17T18:00:41.034Z,99506.75
2022-08-17T18:05:53.241Z,99511.03
2022-08-17T18:11:04.929Z,99517.84
2022-08-17T18:16:13.425Z,99515.31
2022-08-17T18:21:19.467Z,99518.69
2022-08-17T18:26:37.828Z,99523.63
2022-08-17T18:31:42.100Z,99519.72
2022-08-17T18:36:44.829Z,99519.72
2022-08-17T18:41:50.339Z,99519.38
2022-08-17T18:47:08.811Z,99514.38
2022-08-17T18:52:16.157Z,99520.03
2022-08-17T18:57:31.546Z,99532.84
2022-08-17T19:02:45.354Z,99533.31
2022-08-17T19:07:49.053Z,99532.66
2022-08-17T19:13:00.327Z,99536.88
2022-08-17T19:18:15.726Z,99529.06
2022-08-17T19:23:24.724Z,99521.56
2022-08-17T19:28:33.546Z,99517.28
2022-08-17T19:33:37.855Z,99507.09
2022-08-17T19:38:58.671Z,99513.56
2022-08-17T19:44:20.032Z,99516.47
2022-08-17T19:49:41.473Z,99515.22
2022-08-17T19:54:52.381Z,99503.00
2022-08-17T20:00:10.438Z,99506.81
2022-08-17T20:05:20.878Z,99511.69
2022-08-17T20:10:47.356Z,99504.31
2022-08-17T20:15:57.756Z,99509.47
2022-08-17T20:21:19.873Z,99513.91
2022-08-17T20:26:29.471Z,99512.53
2022-08-17T20:31:45.537Z,99507.41
2022-08-17T20:37:01.469Z,99511.50
2022-08-17T20:42:22.998Z,99518.13
2022-08-17T20:47:29.031Z,99526.44
2022-08-17T20:52:54.134Z,99520.44
2022-08-17T20:57:56.967Z,99519.47
2022-08-17T21:03:50.294Z,99530.91
2022-08-17T21:09:00.080Z,99522.53
2022-08-17T21:14:13.712Z,99514.16
2022-08-17T21:19:31.228Z,99525.13
2022-08-17T21:24:48.457Z,99530.53
2022-08-17T21:30:12.229Z,99538.88
2022-08-17T21:35:48.198Z,99546.44
2022-08-17T21:40:54.305Z,99538.44
2022-08-17T21:46:06.089Z,99547.78
2022-08-17T21:51:12.072Z,99543.72
2022-08-17T21:56:25.351Z,99553.94
2022-08-17T22:01:31.187Z,99543.72
2022-08-17T22:06:40.824Z,99547.31
2022-08-17T22:11:54.262Z,99548.69
2022-08-17T22:17:16.440Z,99546.47
2022-08-17T22:22:29.761Z,99548.19
2022-08-17T22:27:50.110Z,99554.81
2022-08-17T22:32:53.285Z,99559.44
2022-08-17T22:37:56.420Z,99567.25
2022-08-17T22:43:03.278Z,99574.91
2022-08-17T22:48:06.436Z,99571.69
2022-08-17T22:53:34.204Z,99578.84
2022-08-17T22:59:01.877Z,99586.16
2022-08-17T23:04:07.507Z,99576.97
2022-08-17T23:09:10.520Z,99566.38
2022-08-17T23:14:15.700Z,99566.41
2022-08-17T23:19:20.555Z,99561.16
2022-08-17T23:24:25.469Z,99566.91
2022-08-17T23:29:30.312Z,99565.75
2022-08-17T23:34:33.407Z,99553.81
2022-08-17T23:39:36.739Z,99565.38
2022-08-17T23:44:43.640Z,99566.41
2022-08-17T23:49:46.499Z,99551.78
2022-08-17T23:54:49.840Z,99551.78
2022-08-17T23:59:53.994Z,99556.88
